Time;durP1;ratioP1;P1;durP2;ratioP2;P2;SDS_P1;SDS_P2;PMS_P1;PMS_P2;Temp;Humidity;BMP_temperature;BMP_pressure;BME280_temperature;BME280_humidity;BME280_pressure;Samples;Min_cycle;Max_cycle;Signal;HPM_P1;HPM_P2
2023/01/23 00:02:08;;;;;;;15.32;9.55;;;;;;;2.11;100.00;101878.84;5059935;28;20199;-74
2023/01/23 00:04:34;;;;;;;12.93;8.98;;;;;;;2.13;100.00;101861.13;5058220;28;20207;-74
2023/01/23 00:07:02;;;;;;;11.48;7.82;;;;;;;2.14;100.00;101867.34;5055694;28;20270;-75
2023/01/23 00:09:29;;;;;;;10.95;8.00;;;;;;;2.15;100.00;101862.06;5060879;28;20593;-75
2023/01/23 00:11:56;;;;;;;14.80;8.55;;;;;;;2.21;100.00;101861.22;5061098;28;20207;-74
2023/01/23 00:14:23;;;;;;;14.55;8.00;;;;;;;2.20;100.00;101863.00;5060978;28;20303;-74
2023/01/23 00:16:50;;;;;;;13.25;9.18;;;;;;;2.21;100.00;101866.53;5060827;28;20299;-75
2023/01/23 00:19:16;;;;;;;15.35;9.65;;;;;;;2.15;100.00;101867.38;5059704;28;20724;-76
2023/01/23 00:21:43;;;;;;;15.50;9.60;;;;;;;2.18;100.00;101878.03;5059408;28;20204;-75
2023/01/23 00:24:11;;;;;;;14.20;9.00;;;;;;;2.17;100.00;101878.91;5062519;28;20816;-74
2023/01/23 00:26:38;;;;;;;14.95;8.60;;;;;;;2.16;100.00;101871.81;5064125;28;20237;-74
2023/01/23 00:29:06;;;;;;;15.00;9.15;;;;;;;2.15;100.00;101883.31;5091625;22;20234;-77
2023/01/23 00:31:36;;;;;;;15.23;9.63;;;;;;;2.20;100.00;101878.06;5079119;28;20204;-77
2023/01/23 00:34:05;;;;;;;13.88;8.50;;;;;;;2.23;100.00;101878.97;5075913;28;20293;-75
2023/01/23 00:36:33;;;;;;;14.90;9.35;;;;;;;2.21;100.00;101883.38;5077732;28;20671;-76
2023/01/23 00:39:00;;;;;;;14.40;8.95;;;;;;;2.15;100.00;101877.09;5076731;28;20231;-76
2023/01/23 00:41:27;;;;;;;11.65;8.23;;;;;;;2.17;100.00;101881.56;5081651;28;20196;-74
2023/01/23 00:43:54;;;;;;;13.95;9.10;;;;;;;2.22;100.00;101885.19;5081200;28;20293;-77
2023/01/23 00:46:23;;;;;;;13.95;8.63;;;;;;;2.25;100.00;101879.00;5080419;28;20277;-77
2023/01/23 00:48:50;;;;;;;11.75;8.30;;;;;;;2.21;100.00;101883.38;5056674;28;20237;-77
2023/01/23 00:51:17;;;;;;;14.15;8.20;;;;;;;2.22;100.00;101882.53;5057203;28;20236;-77
2023/01/23 00:53:44;;;;;;;15.10;9.10;;;;;;;2.20;100.00;101881.59;5056615;28;20208;-76
2023/01/23 00:56:11;;;;;;;12.80;8.43;;;;;;;2.15;100.00;101885.97;5064412;28;20282;-76
2023/01/23 00:58:39;;;;;;;13.80;8.13;;;;;;;2.24;100.00;101895.84;5078307;28;20587;-77
2023/01/23 01:01:05;;;;;;;12.95;8.23;;;;;;;2.30;100.00;101882.59;5080708;28;20203;-77
2023/01/23 01:03:34;;;;;;;13.23;7.82;;;;;;;2.29;100.00;101881.72;5080606;28;20585;-77
2023/01/23 01:06:01;;;;;;;10.93;6.82;;;;;;;2.27;100.00;101888.78;5079498;28;20219;-76
2023/01/23 01:08:27;;;;;;;10.93;8.35;;;;;;;2.22;100.00;101878.97;5068724;28;20692;-77
2023/01/23 01:10:54;;;;;;;11.77;7.80;;;;;;;2.22;100.00;101884.28;5059510;28;20718;-76
2023/01/23 01:13:22;;;;;;;12.57;8.15;;;;;;;2.21;100.00;101887.81;5062072;28;20212;-76
2023/01/23 01:15:49;;;;;;;11.63;7.63;;;;;;;2.11;100.00;101886.81;5063234;28;20205;-75
2023/01/23 01:18:17;;;;;;;12.18;8.23;;;;;;;2.05;100.00;101894.69;5071426;28;20230;-77
2023/01/23 01:20:45;;;;;;;12.98;8.45;;;;;;;1.94;100.00;101897.19;5085181;28;20235;-75
2023/01/23 01:23:12;;;;;;;11.82;7.65;;;;;;;1.83;100.00;101891.75;5082711;28;20218;-75
2023/01/23 01:25:40;;;;;;;13.05;7.95;;;;;;;1.69;100.00;101897.72;5081785;28;20747;-74
2023/01/23 01:28:07;;;;;;;15.05;8.25;;;;;;;1.60;100.00;101898.47;5075705;28;20259;-76
2023/01/23 01:30:35;;;;;;;13.23;7.80;;;;;;;1.53;100.00;101904.56;5062462;28;20258;-76
2023/01/23 01:33:02;;;;;;;13.30;8.13;;;;;;;1.44;100.00;101902.63;5061139;28;20272;-75
2023/01/23 01:35:29;;;;;;;11.68;7.80;;;;;;;1.46;100.00;101906.22;5059478;28;20663;-76
2023/01/23 01:37:57;;;;;;;11.88;7.90;;;;;;;1.37;100.00;101906.97;5059929;28;20223;-77
2023/01/23 01:40:26;;;;;;;14.55;8.07;;;;;;;1.31;100.00;101911.28;5063746;28;20701;-77
2023/01/23 01:42:56;;;;;;;14.30;8.00;;;;;;;1.27;100.00;101915.66;5075068;28;20283;-75
2023/01/23 01:46:04;;;;;;;13.63;8.18;;;;;;;1.25;100.00;101906.75;5082549;28;20679;-77
2023/01/23 01:48:35;;;;;;;10.98;7.45;;;;;;;1.27;100.00;101920.03;5083548;28;20227;-75
2023/01/23 01:51:05;;;;;;;12.80;7.65;;;;;;;1.35;100.00;101913.13;5071457;28;20263;-77
2023/01/23 01:53:34;;;;;;;12.80;8.00;;;;;;;1.39;100.00;101917.63;5063742;28;20726;-76
2023/01/23 01:56:01;;;;;;;17.02;9.40;;;;;;;1.42;100.00;101913.22;5064843;28;20267;-77
2023/01/23 01:58:28;;;;;;;15.20;8.30;;;;;;;1.51;100.00;101922.22;5067322;28;20224;-76
2023/01/23 02:00:57;;;;;;;14.90;8.73;;;;;;;1.59;100.00;101923.25;5065375;28;20241;-77
2023/01/23 02:03:25;;;;;;;16.75;9.20;;;;;;;1.60;100.00;101922.38;5066555;28;20256;-76
2023/01/23 02:05:52;;;;;;;16.00;8.52;;;;;;;1.62;100.00;101924.16;5066899;28;20204;-76
2023/01/23 02:08:24;;;;;;;13.55;7.95;;;;;;;1.59;100.00;101917.94;5078380;28;20227;-74
2023/01/23 02:10:53;;;;;;;11.90;7.97;;;;;;;1.57;100.00;101917.03;5065888;28;20656;-76
2023/01/23 02:13:24;;;;;;;14.00;8.30;;;;;;;1.43;100.00;101917.69;5061780;28;20208;-76
2023/01/23 02:15:52;;;;;;;16.52;8.60;;;;;;;1.33;100.00;101913.06;5058707;28;20187;-76
2023/01/23 02:18:19;;;;;;;13.88;8.10;;;;;;;1.21;100.00;101912.88;5074771;28;20283;-76
2023/01/23 02:20:47;;;;;;;15.00;8.85;;;;;;;1.10;100.00;101923.31;5079531;28;20208;-77
2023/01/23 02:23:25;;;;;;;14.80;8.43;;;;;;;1.11;100.00;101924.19;5082781;28;20270;-76
2023/01/23 02:25:58;;;;;;;14.93;9.20;;;;;;;1.04;100.00;101925.84;5080455;28;20208;-77
2023/01/23 02:28:39;;;;;;;13.00;8.00;;;;;;;1.00;100.00;101927.56;5064584;28;20250;-76
2023/01/23 02:31:07;;;;;;;12.82;7.97;;;;;;;1.04;100.00;101923.19;5060570;28;20220;-76
2023/01/23 02:33:49;;;;;;;15.38;8.52;;;;;;;1.05;100.00;101917.03;5065100;28;20226;-76
2023/01/23 02:36:17;;;;;;;14.05;8.40;;;;;;;1.06;100.00;101921.47;5059326;28;20195;-76
2023/01/23 02:38:58;;;;;;;16.67;9.50;;;;;;;1.06;100.00;101924.09;5059308;28;20319;-77
2023/01/23 02:41:29;;;;;;;13.15;7.88;;;;;;;0.95;100.00;101930.97;5058362;28;20193;-75
2023/01/23 02:43:58;;;;;;;13.00;8.35;;;;;;;0.91;100.00;101930.03;5058919;28;20189;-77
2023/01/23 02:46:25;;;;;;;12.77;8.10;;;;;;;0.96;100.00;101932.78;5061901;28;20211;-77
2023/01/23 02:48:52;;;;;;;16.15;9.98;;;;;;;0.99;100.00;101939.03;5081415;28;20701;-75
2023/01/23 02:51:19;;;;;;;16.15;10.10;;;;;;;1.11;100.00;101941.03;5065613;28;20199;-77
2023/01/23 02:53:46;;;;;;;16.58;9.73;;;;;;;1.21;100.00;101934.13;5081950;28;20231;-75
2023/01/23 02:56:13;;;;;;;12.80;8.85;;;;;;;1.34;100.00;101937.88;5085092;28;20372;-75
2023/01/23 03:01:26;;;;;;;15.18;9.80;;;;;;;1.53;100.00;101941.72;5082227;28;20201;-76
2023/01/23 03:03:54;;;;;;;17.60;10.40;;;;;;;1.58;100.00;101940.97;5083378;28;20227;-76
2023/01/23 03:06:20;;;;;;;15.95;9.48;;;;;;;1.73;100.00;101945.59;5070581;28;20198;-76
2023/01/23 03:08:48;;;;;;;15.98;10.07;;;;;;;1.78;100.00;101948.31;5061051;28;20236;-73
2023/01/23 03:11:16;;;;;;;18.30;10.75;;;;;;;1.74;100.00;101939.44;5063946;28;20207;-76
2023/01/23 03:13:44;;;;;;;15.07;9.88;;;;;;;1.75;100.00;101945.63;5063702;28;20203;-76
2023/01/23 03:16:11;;;;;;;19.25;11.10;;;;;;;1.78;100.00;101948.31;5062363;28;20204;-78
2023/01/23 03:18:38;;;;;;;16.30;10.70;;;;;;;1.80;100.00;101954.56;5070524;28;20219;-74
2023/01/23 03:21:06;;;;;;;16.08;9.25;;;;;;;1.78;100.00;101962.50;5057351;28;20232;-76
2023/01/23 03:23:32;;;;;;;15.05;8.95;;;;;;;1.82;100.00;101966.09;5058831;28;20203;-76
2023/01/23 03:25:59;;;;;;;15.77;9.85;;;;;;;1.82;100.00;101958.13;5069207;28;20295;-75
2023/01/23 03:31:13;;;;;;;14.68;10.18;;;;;;;1.95;100.00;101959.22;5087639;28;20213;-74
2023/01/23 03:33:42;;;;;;;16.83;9.25;;;;;;;1.98;100.00;101961.91;5086931;28;20224;-77
2023/01/23 03:36:09;;;;;;;14.82;9.25;;;;;;;1.90;100.00;101956.50;5089468;28;20628;-73
2023/01/23 03:38:36;;;;;;;15.68;9.68;;;;;;;1.97;100.00;101957.50;5048117;28;20264;-75
2023/01/23 03:43:48;;;;;;;15.95;9.00;;;;;;;1.99;100.00;101961.03;5065353;28;20248;-76
2023/01/23 03:46:15;;;;;;;12.45;8.65;;;;;;;2.00;100.00;101962.84;5069037;28;20187;-75
2023/01/23 03:48:42;;;;;;;13.30;8.35;;;;;;;2.02;100.00;101967.31;5070630;28;20259;-75
2023/01/23 03:51:09;;;;;;;15.38;8.52;;;;;;;2.00;100.00;101969.03;5074668;28;20205;-73
2023/01/23 03:53:35;;;;;;;14.35;8.98;;;;;;;2.06;100.00;101962.94;5077161;28;20206;-74
2023/01/23 03:56:01;;;;;;;18.73;9.75;;;;;;;2.04;100.00;101960.25;5076961;28;20207;-74
2023/01/23 03:58:29;;;;;;;14.55;8.70;;;;;;;2.04;100.00;101954.94;5091209;28;20233;-76
2023/01/23 04:00:56;;;;;;;14.95;8.73;;;;;;;2.04;100.00;101960.25;5091212;28;20205;-76
2023/01/23 04:03:24;;;;;;;16.90;10.02;;;;;;;2.06;100.00;101952.31;5088563;28;20216;-75
2023/01/23 04:05:55;;;;;;;13.98;9.30;;;;;;;2.03;100.00;101952.25;5082579;28;20213;-77
2023/01/23 04:08:22;;;;;;;11.75;7.80;;;;;;;2.09;100.00;101952.34;5057720;28;20219;-77
2023/01/23 04:10:49;;;;;;;13.20;8.85;;;;;;;2.09;100.00;101958.53;5057348;28;20246;-76
2023/01/23 04:13:15;;;;;;;13.00;8.40;;;;;;;2.03;100.00;101957.56;5060162;28;20215;-76
2023/01/23 04:15:42;;;;;;;14.15;8.73;;;;;;;2.12;100.00;101964.78;5062118;28;20203;-77
2023/01/23 04:18:09;;;;;;;13.48;8.30;;;;;;;2.14;100.00;101963.91;5079196;28;20219;-75
2023/01/23 04:20:37;;;;;;;15.50;9.02;;;;;;;2.13;100.00;101963.91;5080869;28;20226;-76
2023/01/23 04:23:03;;;;;;;14.18;7.63;;;;;;;2.18;100.00;101956.91;5062295;28;20213;-76
2023/01/23 04:25:30;;;;;;;11.90;8.23;;;;;;;2.19;100.00;101959.56;5060460;28;20592;-76
2023/01/23 04:27:57;;;;;;;12.35;8.10;;;;;;;2.17;100.00;101955.09;5056271;28;20262;-77
2023/01/23 04:30:23;;;;;;;15.88;9.10;;;;;;;2.15;100.00;101951.50;5057276;28;20696;-77
2023/01/23 04:32:50;;;;;;;14.10;7.97;;;;;;;2.17;100.00;101950.69;5075465;28;20291;-76
2023/01/23 04:35:17;;;;;;;12.43;8.38;;;;;;;2.20;100.00;101949.84;5080524;28;20209;-76
2023/01/23 04:37:44;;;;;;;13.50;8.27;;;;;;;2.27;100.00;101957.03;5079880;28;20238;-75
2023/01/23 04:40:12;;;;;;;11.57;8.00;;;;;;;2.24;100.00;101952.56;5079560;28;20321;-76
2023/01/23 04:42:39;;;;;;;13.73;8.20;;;;;;;2.21;100.00;101957.81;5077987;28;20263;-77
2023/01/23 04:45:06;;;;;;;12.98;8.50;;;;;;;2.17;100.00;101960.41;5080956;28;20202;-76
2023/01/23 04:47:33;;;;;;;15.20;9.07;;;;;;;2.17;100.00;101948.03;5080451;28;20217;-75
2023/01/23 04:50:00;;;;;;;12.88;8.30;;;;;;;2.20;100.00;101948.06;5080016;28;20310;-76
2023/01/23 04:52:27;;;;;;;12.48;7.57;;;;;;;2.20;100.00;101950.72;5068929;28;20196;-75
2023/01/23 04:54:55;;;;;;;14.23;8.35;;;;;;;2.20;100.00;101952.50;5059828;28;20207;-75
2023/01/23 04:57:22;;;;;;;12.13;7.60;;;;;;;2.18;100.00;101947.16;5073219;28;20604;-76
2023/01/23 04:59:49;;;;;;;11.88;8.48;;;;;;;2.19;100.00;101951.56;5079696;28;20199;-75
2023/01/23 05:02:15;;;;;;;10.40;7.40;;;;;;;2.23;100.00;101950.75;5077774;28;20246;-76
2023/01/23 05:04:42;;;;;;;12.00;8.18;;;;;;;2.27;100.00;101952.59;5083541;28;20224;-74
2023/01/23 05:07:10;;;;;;;12.57;8.65;;;;;;;2.26;100.00;101955.22;5086874;28;20665;-76
2023/01/23 05:09:37;;;;;;;13.80;8.60;;;;;;;2.25;100.00;101949.00;5071767;28;20227;-75
2023/01/23 05:12:06;;;;;;;14.15;8.80;;;;;;;2.28;100.00;101953.47;5066518;28;20213;-76
2023/01/23 05:14:33;;;;;;;11.35;7.45;;;;;;;2.32;100.00;101959.75;5061498;28;20209;-76
2023/01/23 05:16:59;;;;;;;12.88;7.85;;;;;;;2.30;100.00;101968.56;5061624;28;20214;-77
2023/01/23 05:19:26;;;;;;;10.00;6.95;;;;;;;2.36;100.00;101970.44;5064792;28;20222;-76
2023/01/23 05:21:53;;;;;;;9.30;6.72;;;;;;;2.33;100.00;101974.81;5070395;28;20213;-76
2023/01/23 05:24:19;;;;;;;10.18;6.78;;;;;;;2.37;100.00;101974.88;5080985;28;20194;-77
2023/01/23 05:26:46;;;;;;;11.23;7.28;;;;;;;2.37;100.00;101984.63;5084424;28;20201;-77
2023/01/23 05:29:14;;;;;;;10.70;7.50;;;;;;;2.39;100.00;101988.19;5087113;28;20230;-77
2023/01/23 05:31:40;;;;;;;13.18;8.13;;;;;;;2.33;100.00;101982.78;5063524;28;20238;-77
2023/01/23 05:34:07;;;;;;;10.25;6.65;;;;;;;2.36;100.00;101990.81;5061780;28;20211;-76
2023/01/23 05:36:33;;;;;;;14.55;7.30;;;;;;;2.41;100.00;101991.78;5059884;28;20199;-76
2023/01/23 05:39:00;;;;;;;12.60;7.70;;;;;;;2.33;100.00;101989.03;5064754;28;20239;-76
2023/01/23 05:41:26;;;;;;;11.57;7.60;;;;;;;2.32;100.00;101992.53;5060849;28;20195;-76
2023/01/23 05:43:53;;;;;;;12.75;7.95;;;;;;;2.38;100.00;101994.41;5058683;28;20631;-76
2023/01/23 05:46:21;;;;;;;12.85;8.25;;;;;;;2.40;100.00;102005.97;5067067;28;20212;-76
2023/01/23 05:48:49;;;;;;;12.02;8.18;;;;;;;2.40;100.00;102008.63;5079022;28;20224;-76
2023/01/23 05:51:16;;;;;;;10.60;7.35;;;;;;;2.45;100.00;102001.59;5076131;28;20228;-77
2023/01/23 05:53:42;;;;;;;11.60;7.57;;;;;;;2.45;100.00;102002.47;5059502;28;20208;-76
2023/01/23 05:56:10;;;;;;;10.20;7.28;;;;;;;2.53;100.00;102007.88;5059809;28;20199;-75
2023/01/23 05:58:37;;;;;;;12.73;8.35;;;;;;;2.50;100.00;101994.56;5059364;28;20223;-76
2023/01/23 06:01:04;;;;;;;11.15;8.05;;;;;;;2.43;100.00;102001.56;5060391;28;20282;-75
2023/01/23 06:03:32;;;;;;;11.27;8.55;;;;;;;2.47;100.00;102008.72;5060447;28;20209;-76
2023/01/23 06:06:01;;;;;;;11.73;7.40;;;;;;;2.40;100.00;102016.59;5059228;28;20643;-76
2023/01/23 06:08:28;;;;;;;12.63;8.45;;;;;;;2.41;100.00;102016.59;5059058;28;20220;-76
2023/01/23 06:10:57;;;;;;;9.98;7.15;;;;;;;2.43;100.00;102011.31;5061847;28;20243;-76
2023/01/23 06:13:24;;;;;;;14.90;7.72;;;;;;;2.51;100.00;102012.31;5062191;28;20204;-76
2023/01/23 06:15:50;;;;;;;10.43;7.07;;;;;;;2.41;100.00;102016.59;5060057;28;20204;-76
2023/01/23 06:18:17;;;;;;;11.48;7.72;;;;;;;2.34;100.00;102021.81;5057099;28;20251;-76
2023/01/23 06:20:45;;;;;;;9.23;6.50;;;;;;;2.36;100.00;102031.59;5058340;28;20615;-76
2023/01/23 06:23:12;;;;;;;9.80;6.55;;;;;;;2.30;100.00;102035.03;5058660;28;20562;-75
2023/01/23 06:25:40;;;;;;;9.77;6.97;;;;;;;2.38;100.00;102034.28;5054444;28;20653;-75
2023/01/23 06:28:07;;;;;;;13.85;6.68;;;;;;;2.40;100.00;102035.22;5044669;28;20227;-78
2023/01/23 06:30:34;;;;;;;10.27;6.60;;;;;;;2.37;100.00;102041.34;5041520;28;20226;-78
2023/01/23 06:33:01;;;;;;;9.82;6.63;;;;;;;2.36;100.00;102041.34;5056189;28;20208;-75
2023/01/23 06:35:27;;;;;;;9.60;6.53;;;;;;;2.38;100.00;102056.44;5057877;28;20201;-77
2023/01/23 06:37:55;;;;;;;10.40;6.97;;;;;;;2.43;100.00;102053.84;5061655;28;20295;-74
2023/01/23 06:40:22;;;;;;;9.18;7.53;;;;;;;2.48;100.00;102054.81;5060726;28;20199;-76
2023/01/23 06:42:49;;;;;;;9.93;7.13;;;;;;;2.48;100.00;102052.16;5060898;28;20213;-76
2023/01/23 06:45:16;;;;;;;9.57;6.70;;;;;;;2.48;100.00;102054.81;5052769;28;20298;-75
2023/01/23 06:47:42;;;;;;;10.50;6.93;;;;;;;2.52;100.00;102045.13;5060964;28;20309;-76
2023/01/23 06:50:10;;;;;;;9.88;6.43;;;;;;;2.53;100.00;102055.75;5063672;28;20219;-75
2023/01/23 06:52:36;;;;;;;31.88;19.45;;;;;;;2.48;100.00;102046.81;5059223;28;20207;-70
2023/01/23 06:55:05;;;;;;;46.20;26.52;;;;;;;2.76;100.00;102048.13;5053184;28;20202;-70
2023/01/23 06:57:33;;;;;;;16.55;10.68;;;;;;;2.71;100.00;102048.06;5041634;28;20213;-76
2023/01/23 07:00:00;;;;;;;10.43;7.80;;;;;;;2.67;100.00;102059.53;5057569;28;20198;-76
2023/01/23 07:02:26;;;;;;;10.82;6.60;;;;;;;2.66;100.00;102048.84;5057717;28;20229;-74
2023/01/23 07:04:53;;;;;;;8.48;6.20;;;;;;;2.60;100.00;102057.66;5060672;28;20318;-76
2023/01/23 07:07:19;;;;;;;10.85;6.75;;;;;;;2.52;100.00;102056.66;5062032;28;20211;-76
2023/01/23 07:09:46;;;;;;;9.13;6.60;;;;;;;2.39;100.00;102049.34;5061056;28;20207;-77
2023/01/23 07:12:14;;;;;;;9.57;6.60;;;;;;;2.40;100.00;102048.50;5059989;28;20293;-73
2023/01/23 07:14:40;;;;;;;8.50;6.15;;;;;;;2.32;100.00;102053.69;5059445;28;20210;-76
2023/01/23 07:17:07;;;;;;;9.85;7.43;;;;;;;2.32;100.00;102044.81;5058725;28;20650;-75
2023/01/23 07:19:34;;;;;;;9.65;7.05;;;;;;;2.16;100.00;102046.34;5061910;28;20227;-76
2023/01/23 07:22:01;;;;;;;9.18;6.45;;;;;;;2.11;100.00;102046.28;5062223;28;20190;-75
2023/01/23 07:24:31;;;;;;;9.15;6.18;;;;;;;2.02;100.00;102052.34;5059837;28;20202;-77
2023/01/23 07:26:58;;;;;;;10.25;7.38;;;;;;;1.91;100.00;102058.34;5057762;28;20188;-76
2023/01/23 07:29:26;;;;;;;9.80;6.50;;;;;;;1.94;100.00;102069.91;5054765;28;20246;-75
2023/01/23 07:31:52;;;;;;;10.00;7.45;;;;;;;2.01;100.00;102073.56;5056184;28;20224;-76
2023/01/23 07:34:19;;;;;;;10.35;6.53;;;;;;;2.15;100.00;102077.38;5055772;28;20239;-76
2023/01/23 07:36:45;;;;;;;10.27;6.95;;;;;;;2.23;100.00;102082.81;5055173;28;20200;-77
2023/01/23 07:39:12;;;;;;;12.85;8.23;;;;;;;2.25;100.00;102081.94;5055831;28;20241;-76
2023/01/23 07:41:38;;;;;;;10.45;7.30;;;;;;;2.20;100.00;102091.63;5056427;28;20210;-76
2023/01/23 07:44:20;;;;;;;8.80;6.40;;;;;;;2.17;100.00;102096.91;5061804;28;20219;-76
2023/01/23 07:46:48;;;;;;;10.23;6.90;;;;;;;2.23;100.00;102104.06;5058891;28;20226;-77
2023/01/23 07:49:15;;;;;;;10.70;7.45;;;;;;;2.27;100.00;102109.47;5074019;28;20227;-74
2023/01/23 07:51:42;;;;;;;11.88;7.78;;;;;;;2.48;100.00;102110.66;5077507;28;20216;-73
2023/01/23 07:54:09;;;;;;;12.73;7.20;;;;;;;2.61;100.00;102117.06;5076863;28;20199;-72
2023/01/23 07:56:39;;;;;;;10.65;7.20;;;;;;;2.67;100.00;102123.38;5077400;28;20185;-74
2023/01/23 07:59:06;;;;;;;12.70;7.50;;;;;;;2.67;100.00;102131.34;5076854;28;20217;-72
2023/01/23 08:01:34;;;;;;;10.98;7.63;;;;;;;2.68;100.00;102130.47;5077521;28;20202;-73
2023/01/23 08:04:02;;;;;;;12.55;8.32;;;;;;;2.67;100.00;102133.13;5077215;28;20188;-75
2023/01/23 08:06:28;;;;;;;15.68;9.95;;;;;;;2.68;100.00;102138.47;5071705;28;20195;-75
2023/01/23 08:08:55;;;;;;;15.40;10.63;;;;;;;2.76;100.00;102138.59;5066495;28;20676;-75
2023/01/23 08:11:22;;;;;;;13.35;9.77;;;;;;;2.87;100.00;102141.38;5064321;28;20246;-77
2023/01/23 08:13:50;;;;;;;13.30;7.63;;;;;;;2.86;100.00;102145.81;5064559;28;20194;-76
2023/01/23 08:16:16;;;;;;;11.52;7.03;;;;;;;2.87;100.00;102136.97;5058130;28;20220;-77
2023/01/23 08:18:43;;;;;;;11.00;8.02;;;;;;;2.91;100.00;102143.22;5056555;28;20299;-76
2023/01/23 08:21:11;;;;;;;9.43;6.97;;;;;;;2.99;100.00;102146.88;5055276;28;20230;-77
2023/01/23 08:23:54;;;;;;;8.63;6.68;;;;;;;2.94;100.00;102148.59;5057502;28;20210;-86
2023/01/23 08:26:21;;;;;;;9.38;6.80;;;;;;;2.89;100.00;102142.28;5060077;28;20206;-78
2023/01/23 08:28:47;;;;;;;96.43;69.00;;;;;;;3.04;100.00;102147.84;5064962;28;20299;-70
2023/01/23 08:31:14;;;;;;;13.57;9.75;;;;;;;3.21;100.00;102152.47;5064817;28;20275;-75
2023/01/23 08:33:41;;;;;;;9.60;7.55;;;;;;;3.17;100.00;102148.91;5075196;28;20216;-75
2023/01/23 08:36:08;;;;;;;11.23;7.38;;;;;;;3.18;100.00;102148.03;5063530;28;20283;-79
2023/01/23 08:38:36;;;;;;;8.10;6.40;;;;;;;3.22;100.00;102143.63;5056900;28;20231;-77
2023/01/23 08:41:04;;;;;;;11.15;7.97;;;;;;;3.19;100.00;102154.22;5056696;28;20231;-76
2023/01/23 08:43:32;;;;;;;9.32;6.65;;;;;;;3.13;100.00;102149.72;5056504;28;20195;-77
2023/01/23 08:46:00;;;;;;;11.05;7.38;;;;;;;3.10;100.00;102155.91;5056820;28;20201;-76
2023/01/23 08:48:27;;;;;;;10.77;7.10;;;;;;;3.17;100.00;102164.88;5065349;28;20222;-77
2023/01/23 08:51:00;;;;;;;11.70;7.90;;;;;;;3.20;100.00;102161.38;5067736;28;20331;-76
2023/01/23 08:53:26;;;;;;;8.98;7.32;;;;;;;3.26;100.00;102164.13;5080651;28;20326;-77
2023/01/23 08:55:59;;;;;;;9.70;6.93;;;;;;;3.26;100.00;102161.44;5069489;28;20494;-77
2023/01/23 08:58:25;;;;;;;9.68;7.32;;;;;;;3.36;100.00;102152.69;5079869;28;20757;-75
2023/01/23 09:00:52;;;;;;;8.63;6.80;;;;;;;3.37;100.00;102158.91;5074491;28;20259;-75
2023/01/23 09:03:18;;;;;;;8.15;6.70;;;;;;;3.26;100.00;102154.34;5069486;28;20262;-76
2023/01/23 09:05:45;;;;;;;9.63;7.15;;;;;;;3.34;100.00;102162.41;5060745;28;20214;-78
2023/01/23 09:08:12;;;;;;;12.38;7.95;;;;;;;3.39;100.00;102165.13;5062083;28;20781;-77
2023/01/23 09:10:39;;;;;;;11.20;7.65;;;;;;;3.46;100.00;102167.00;5063246;28;20203;-79
2023/01/23 09:13:06;;;;;;;8.68;6.22;;;;;;;3.52;100.00;102156.44;5059085;28;20218;-77
2023/01/23 09:15:33;;;;;;;9.82;6.88;;;;;;;3.49;100.00;102159.94;5076261;28;20227;-77
2023/01/23 09:18:00;;;;;;;9.02;6.35;;;;;;;3.49;100.00;102159.94;5086473;28;20220;-76
2023/01/23 09:20:27;;;;;;;8.57;5.80;;;;;;;3.53;100.00;102160.91;5092353;28;20218;-75
2023/01/23 09:22:54;;;;;;;9.73;6.32;;;;;;;3.56;100.00;102166.25;5080867;28;20192;-74
2023/01/23 09:25:21;;;;;;;10.15;7.50;;;;;;;3.55;100.00;102154.72;5083909;28;20183;-74
2023/01/23 09:27:47;;;;;;;8.73;7.30;;;;;;;3.61;100.00;102150.31;5095255;28;20230;-77
2023/01/23 09:30:18;;;;;;;9.07;6.53;;;;;;;3.64;100.00;102158.34;5092522;28;20223;-76
2023/01/23 09:32:45;;;;;;;10.98;7.28;;;;;;;3.71;100.00;102162.88;5041399;28;20276;-78
2023/01/23 09:35:11;;;;;;;9.88;6.63;;;;;;;3.82;100.00;102166.56;5089776;28;20237;-77
2023/01/23 09:40:26;;;;;;;11.55;8.00;;;;;;;3.90;100.00;102167.50;5070470;28;20212;-77
2023/01/23 09:42:54;;;;;;;10.70;7.05;;;;;;;3.97;100.00;102163.13;5072797;28;20299;-78
2023/01/23 09:45:25;;;;;;;8.73;6.10;;;;;;;3.85;100.00;102165.69;5078718;28;20650;-78
2023/01/23 09:47:57;;;;;;;11.75;8.00;;;;;;;4.00;100.00;102170.25;5081743;28;20716;-78
2023/01/23 09:50:28;;;;;;;11.68;7.80;;;;;;;4.06;100.00;102165.88;5080912;28;20609;-77
2023/01/23 09:53:01;;;;;;;13.40;8.07;;;;;;;4.19;100.00;102161.56;5052974;28;20220;-77
2023/01/23 09:55:39;;;;;;;9.90;6.50;;;;;;;4.07;100.00;102156.09;5069966;28;20287;-77
2023/01/23 09:58:11;;;;;;;11.90;7.47;;;;;;;4.17;100.00;102153.56;5070460;28;20226;-76
2023/01/23 10:00:39;;;;;;;11.27;7.75;;;;;;;4.29;100.00;102152.75;5066240;28;20305;-75
2023/01/23 10:03:13;;;;;;;12.23;8.88;;;;;;;4.33;100.00;102149.25;5065547;28;20231;-76
2023/01/23 10:05:46;;;;;;;10.68;7.00;;;;;;;4.43;100.00;102151.97;5062290;28;20198;-78
2023/01/23 10:08:22;;;;;;;10.00;7.60;;;;;;;4.26;100.00;102160.75;5074970;28;20734;-74
2023/01/23 10:10:58;;;;;;;10.82;7.28;;;;;;;4.13;100.00;102153.50;5062144;28;20199;-77
2023/01/23 10:13:40;;;;;;;10.77;7.53;;;;;;;4.14;100.00;102158.88;5037886;28;20644;-75
2023/01/23 10:16:24;;;;;;;9.93;7.40;;;;;;;4.13;100.00;102158.84;5045236;28;20188;-78
2023/01/23 10:19:01;;;;;;;11.18;6.80;;;;;;;4.30;100.00;102154.56;5058549;28;20282;-77
2023/01/23 10:21:34;;;;;;;8.80;7.13;;;;;;;4.31;100.00;102160.78;5073775;28;20405;-77
2023/01/23 10:24:06;;;;;;;10.82;7.60;;;;;;;4.32;100.00;102160.81;5069612;28;20724;-76
2023/01/23 10:26:38;;;;;;;10.82;7.88;;;;;;;4.42;100.00;102155.53;5069991;28;20198;-77
2023/01/23 10:29:14;;;;;;;11.90;7.68;;;;;;;4.55;100.00;102157.44;5084478;28;20258;-77
2023/01/23 10:31:48;;;;;;;9.60;7.50;;;;;;;4.52;100.00;102157.38;5071382;28;20294;-76
2023/01/23 10:34:22;;;;;;;10.60;7.68;;;;;;;4.66;100.00;102149.47;5082309;28;20623;-75
2023/01/23 10:37:05;;;;;;;10.00;6.90;;;;;;;4.75;100.00;102158.47;5072835;28;20192;-77
2023/01/23 10:39:44;;;;;;;8.98;6.45;;;;;;;4.84;100.00;102160.31;5083217;28;20393;-77
2023/01/23 10:42:12;;;;;;;12.15;7.72;;;;;;;4.61;100.00;102162.78;5071525;28;20230;-78
2023/01/23 10:44:39;;;;;;;10.23;7.55;;;;;;;4.56;100.00;102165.44;5070013;28;20225;-77
2023/01/23 10:47:19;;;;;;;10.70;7.28;;;;;;;4.52;100.00;102150.31;5061316;28;20294;-77
2023/01/23 10:49:46;;;;;;;11.35;7.63;;;;;;;4.57;100.00;102155.66;5061578;28;20516;-76
2023/01/23 10:52:31;;;;;;;9.73;7.30;;;;;;;4.43;100.00;102147.53;5063531;28;20220;-76
2023/01/23 10:54:58;;;;;;;12.82;8.80;;;;;;;4.55;100.00;102154.75;5070469;28;20198;-77
2023/01/23 10:57:27;;;;;;;8.10;6.10;;;;;;;4.60;100.00;102156.56;5065104;28;20652;-76
2023/01/23 10:59:59;;;;;;;9.80;6.60;;;;;;;4.52;100.00;102152.97;5077114;28;20218;-75
2023/01/23 11:02:32;;;;;;;11.35;6.65;;;;;;;4.60;100.00;102156.56;5084809;28;20203;-75
2023/01/23 11:04:59;;;;;;;10.30;7.45;;;;;;;4.57;100.00;102151.22;5084316;28;20195;-77
2023/01/23 11:07:27;;;;;;;12.85;7.47;;;;;;;4.60;100.00;102151.22;5076432;28;20211;-77
2023/01/23 11:09:56;;;;;;;8.20;6.50;;;;;;;4.76;100.00;102149.56;5047841;28;20199;-77
2023/01/23 11:12:25;;;;;;;11.75;8.32;;;;;;;4.70;100.00;102144.16;5076528;28;20218;-78
2023/01/23 11:15:12;;;;;;;10.40;7.07;;;;;;;4.64;100.00;102145.94;5078430;28;20203;-79
2023/01/23 11:17:42;;;;;;;9.00;6.60;;;;;;;4.75;100.00;102144.22;5078975;28;20313;-76
2023/01/23 11:20:22;;;;;;;12.90;8.05;;;;;;;4.92;100.00;102133.63;5069852;28;20206;-77
2023/01/23 11:23:00;;;;;;;45.05;30.45;;;;;;;5.31;100.00;102143.59;5036222;28;20239;-71
2023/01/23 11:25:30;;;;;;;12.48;8.13;;;;;;;5.49;100.00;102132.09;5047816;28;20198;-76
2023/01/23 11:27:58;;;;;;;10.35;6.78;;;;;;;5.47;100.00;102124.97;5055705;28;20349;-75
2023/01/23 11:30:41;;;;;;;10.48;7.05;;;;;;;5.52;100.00;102129.47;5059195;28;20203;-74
2023/01/23 11:33:28;;;;;;;11.18;7.45;;;;;;;5.51;100.00;102129.44;5068019;28;20216;-76
2023/01/23 11:36:02;;;;;;;8.85;6.85;;;;;;;5.70;100.00;102127.69;5058922;28;20309;-76
2023/01/23 11:38:39;;;;;;;9.43;6.78;;;;;;;5.93;100.00;102123.31;5058638;28;20229;-74